Time;durP1;ratioP1;P1;durP2;ratioP2;P2;SDS_P1;SDS_P2;PMS_P1;PMS_P2;Temp;Humidity;BMP_temperature;BMP_pressure;BME280_temperature;BME280_humidity;BME280_pressure;Samples;Min_cycle;Max_cycle;Signal;HPM_P1;HPM_P2
2023/09/12 00:11:14;;;;;;;;;;;;;;;;;;;;;
2023/09/12 00:41:09;;;;;;;;;;;;;;;;;;6307394;22;19926;-84
2023/09/12 00:43:42;;;;;;;;;;;;;;;;;;6301052;22;19918;-83
2023/09/12 00:46:08;;;;;;;;;;;;;;;;;;6301038;22;19918;-83
2023/09/12 00:48:37;;;;;;;;;;;;;;;;;;6323802;22;19922;-83
2023/09/12 00:51:04;;;;;;;;;;;;;;;;;;6324794;22;19922;-84
2023/09/12 00:53:30;;;;;;;;;;;;;;;;;;6301741;22;19919;-83
2023/09/12 00:56:13;;;;;;;;;;;;;;;;;;6303565;22;19968;-83
2023/09/12 01:01:57;;;;;;;;;;;;;;;;;;6334549;22;20007;-83
2023/09/12 01:04:32;;;;;;;;;;;;;;;;;;6300538;22;19922;-83
2023/09/12 01:07:17;;;;;;;;;;;;;;;;;;;;;
2023/09/12 01:16:22;;;;;;;;;;;;;;;;;;6264441;22;19972;-85
2023/09/12 01:18:48;;;;;;;;;;;;;;;;;;6270947;22;19919;-86
2023/09/12 01:21:14;;;;;;;;;;;;;;;;;;6245233;22;19919;-85
2023/09/12 01:23:40;;;;;;;;;;;;;;;;;;6270875;22;20604;-86
2023/09/12 01:26:06;;;;;;;;;;;;;;;;;;6270564;22;19929;-85
2023/09/12 01:28:34;;;;;;;;;;;;;;;;;;6269753;22;19919;-86
2023/09/12 01:31:00;;;;;;;;;;;;;;;;;;6246947;22;19953;-86
2023/09/12 01:33:26;;;;;;;;;;;;;;;;;;6242450;22;19923;-86
2023/09/12 01:35:52;;;;;;;;;;;;;;;;;;6271428;22;19919;-86
2023/09/12 01:38:18;;;;;;;;;;;;;;;;;;6245715;22;19989;-86
2023/09/12 01:40:44;;;;;;;;;;;;;;;;;;6270456;22;20003;-86
2023/09/12 01:43:09;;;;;;;;;;;;;;;;;;6246442;22;19915;-86
2023/09/12 01:45:35;;;;;;;;;;;;;;;;;;6247228;22;19926;-86
2023/09/12 01:48:01;;;;;;;;;;;;;;;;;;6245591;22;20492;-86
2023/09/12 01:50:27;;;;;;;;;;;;;;;;;;6271696;22;20440;-87
2023/09/12 01:52:53;;;;;;;;;;;;;;;;;;6244634;22;20013;-86
2023/09/12 01:55:19;;;;;;;;;;;;;;;;;;6244565;22;19954;-87
2023/09/12 01:57:47;;;;;;;;;;;;;;;;;;6269826;22;19969;-87
2023/09/12 02:00:13;;;;;;;;;;;;;;;;;;6245864;22;19926;-86
2023/09/12 02:02:39;;;;;;;;;;;;;;;;;;6243084;22;20052;-86
2023/09/12 02:05:05;;;;;;;;;;;;;;;;;;6269177;22;20323;-86
2023/09/12 02:07:31;;;;;;;;;;;;;;;;;;6243732;22;20331;-86
2023/09/12 02:09:56;;;;;;;;;;;;;;;;;;6244757;22;20238;-86
2023/09/12 02:12:22;;;;;;;;;;;;;;;;;;6269724;22;20202;-86
2023/09/12 02:14:48;;;;;;;;;;;;;;;;;;6243690;22;19980;-86
2023/09/12 02:17:14;;;;;;;;;;;;;;;;;;6286576;22;20000;-86
2023/09/12 02:19:40;;;;;;;;;;;;;;;;;;6292854;22;19919;-86
2023/09/12 02:22:07;;;;;;;;;;;;;;;;;;6265424;22;19960;-86
2023/09/12 02:24:33;;;;;;;;;;;;;;;;;;6266885;22;19918;-86
2023/09/12 02:26:59;;;;;;;;;;;;;;;;;;6292716;22;19922;-87
2023/09/12 02:29:25;;;;;;;;;;;;;;;;;;6291122;22;19919;-86
2023/09/12 02:31:51;;;;;;;;;;;;;;;;;;6267718;22;19919;-86
2023/09/12 02:34:26;;;;;;;;;;;;;;;;;;6291788;22;19933;-87
2023/09/12 02:36:58;;;;;;;;;;;;;;;;;;6271983;22;19926;-86
2023/09/12 02:39:24;;;;;;;;;;;;;;;;;;6271868;22;19926;-86
2023/09/12 02:41:50;;;;;;;;;;;;;;;;;;6268684;22;20328;-87
2023/09/12 02:44:16;;;;;;;;;;;;;;;;;;6293040;22;19929;-86
2023/09/12 02:46:44;;;;;;;;;;;;;;;;;;6269031;22;19919;-86
2023/09/12 02:49:10;;;;;;;;;;;;;;;;;;6270144;22;20337;-86
2023/09/12 02:51:36;;;;;;;;;;;;;;;;;;6269736;22;19919;-86
2023/09/12 02:54:02;;;;;;;;;;;;;;;;;;6267889;22;20367;-86
2023/09/12 02:56:28;;;;;;;;;;;;;;;;;;6267066;22;20343;-87
2023/09/12 02:58:54;;;;;;;;;;;;;;;;;;6269513;22;20362;-87
2023/09/12 03:01:21;;;;;;;;;;;;;;;;;;6296278;22;20374;-86
2023/09/12 03:03:47;;;;;;;;;;;;;;;;;;6269873;22;19919;-87
2023/09/12 03:06:14;;;;;;;;;;;;;;;;;;6267364;22;20369;-86
2023/09/12 03:08:40;;;;;;;;;;;;;;;;;;6271262;22;19918;-86
2023/09/12 03:11:07;;;;;;;;;;;;;;;;;;6271837;22;19946;-87
2023/09/12 03:13:35;;;;;;;;;;;;;;;;;;6271447;22;19941;-87
2023/09/12 03:16:01;;;;;;;;;;;;;;;;;;6270181;22;19922;-86
2023/09/12 03:18:27;;;;;;;;;;;;;;;;;;6265643;22;19971;-87
2023/09/12 03:20:53;;;;;;;;;;;;;;;;;;6268396;22;19930;-86
2023/09/12 03:23:19;;;;;;;;;;;;;;;;;;6268693;22;19922;-86
2023/09/12 03:25:45;;;;;;;;;;;;;;;;;;6272175;22;19926;-86
2023/09/12 03:28:11;;;;;;;;;;;;;;;;;;6269886;22;19926;-86
2023/09/12 03:30:39;;;;;;;;;;;;;;;;;;6268098;22;19918;-87
2023/09/12 03:33:05;;;;;;;;;;;;;;;;;;6296433;22;19931;-87
2023/09/12 03:35:31;;;;;;;;;;;;;;;;;;6272192;22;19919;-87
2023/09/12 03:37:57;;;;;;;;;;;;;;;;;;6296095;22;19923;-87
2023/09/12 03:40:23;;;;;;;;;;;;;;;;;;6268587;22;19919;-86
2023/09/12 03:42:49;;;;;;;;;;;;;;;;;;6268627;22;19926;-86
2023/09/12 03:45:15;;;;;;;;;;;;;;;;;;6270967;22;19919;-86
2023/09/12 03:47:41;;;;;;;;;;;;;;;;;;6271999;22;19915;-86
2023/09/12 03:50:07;;;;;;;;;;;;;;;;;;6271521;22;19926;-86
2023/09/12 03:52:33;;;;;;;;;;;;;;;;;;6298047;22;19919;-86
2023/09/12 03:55:00;;;;;;;;;;;;;;;;;;6293544;22;19919;-86
2023/09/12 03:57:26;;;;;;;;;;;;;;;;;;6271462;22;19930;-86
2023/09/12 03:59:52;;;;;;;;;;;;;;;;;;6297906;22;19918;-86
2023/09/12 04:02:18;;;;;;;;;;;;;;;;;;6267887;22;19918;-86
2023/09/12 04:04:44;;;;;;;;;;;;;;;;;;6270312;22;19918;-86
2023/09/12 04:07:10;;;;;;;;;;;;;;;;;;6271698;22;19919;-86
2023/09/12 04:09:36;;;;;;;;;;;;;;;;;;6297833;22;19990;-87
2023/09/12 04:12:02;;;;;;;;;;;;;;;;;;6271077;22;19918;-86
2023/09/12 04:14:28;;;;;;;;;;;;;;;;;;6269349;22;19919;-86
2023/09/12 04:16:54;;;;;;;;;;;;;;;;;;6296133;22;19918;-87
2023/09/12 04:19:20;;;;;;;;;;;;;;;;;;6269769;22;19914;-87
2023/09/12 04:21:46;;;;;;;;;;;;;;;;;;6269543;22;19929;-87
2023/09/12 04:24:12;;;;;;;;;;;;;;;;;;6269506;22;19925;-87
2023/09/12 04:26:38;;;;;;;;;;;;;;;;;;6269952;22;19953;-86
2023/09/12 04:29:04;;;;;;;;;;;;;;;;;;6273072;22;19968;-86
2023/09/12 04:31:30;;;;;;;;;;;;;;;;;;6271257;22;20553;-86
2023/09/12 04:33:56;;;;;;;;;;;;;;;;;;6272668;22;20009;-84
2023/09/12 04:36:22;;;;;;;;;;;;;;;;;;6296579;22;19930;-84
2023/09/12 04:38:47;;;;;;;;;;;;;;;;;;6269690;22;19919;-84
2023/09/12 04:41:17;;;;;;;;;;;;;;;;;;6269437;22;19923;-84
2023/09/12 04:43:44;;;;;;;;;;;;;;;;;;6298421;22;19919;-85
2023/09/12 04:46:10;;;;;;;;;;;;;;;;;;6269508;22;20354;-84
2023/09/12 04:48:36;;;;;;;;;;;;;;;;;;6299250;22;19923;-84
2023/09/12 04:51:04;;;;;;;;;;;;;;;;;;6298691;22;19918;-84
2023/09/12 04:53:36;;;;;;;;;;;;;;;;;;6296529;22;19926;-84
2023/09/12 04:56:06;;;;;;;;;;;;;;;;;;6297814;22;20328;-84
2023/09/12 04:58:32;;;;;;;;;;;;;;;;;;6298472;22;19918;-87
2023/09/12 05:00:58;;;;;;;;;;;;;;;;;;6297489;22;19961;-87
2023/09/12 05:03:24;;;;;;;;;;;;;;;;;;6268318;22;19954;-87
2023/09/12 05:05:50;;;;;;;;;;;;;;;;;;6270914;22;19942;-87
2023/09/12 05:08:16;;;;;;;;;;;;;;;;;;6272068;22;19954;-88
2023/09/12 05:10:44;;;;;;;;;;;;;;;;;;6273055;22;19968;-87
2023/09/12 05:13:10;;;;;;;;;;;;;;;;;;6271712;22;19922;-87
2023/09/12 05:15:36;;;;;;;;;;;;;;;;;;6274837;22;19923;-88
2023/09/12 05:18:02;;;;;;;;;;;;;;;;;;6303680;22;20001;-88
2023/09/12 05:20:28;;;;;;;;;;;;;;;;;;6304626;22;19950;-87
2023/09/12 05:22:54;;;;;;;;;;;;;;;;;;6279671;22;19919;-87
2023/09/12 05:25:20;;;;;;;;;;;;;;;;;;6278558;22;19919;-87
2023/09/12 05:27:46;;;;;;;;;;;;;;;;;;6302146;22;19918;-87
2023/09/12 05:30:12;;;;;;;;;;;;;;;;;;6278174;22;19921;-88
2023/09/12 05:32:38;;;;;;;;;;;;;;;;;;6274436;22;19949;-87
2023/09/12 05:35:04;;;;;;;;;;;;;;;;;;6303570;22;19922;-87
2023/09/12 05:37:30;;;;;;;;;;;;;;;;;;6276704;22;20339;-87
2023/09/12 05:39:56;;;;;;;;;;;;;;;;;;6301694;22;20311;-86
2023/09/12 05:42:22;;;;;;;;;;;;;;;;;;6300663;22;20290;-87
2023/09/12 05:44:49;;;;;;;;;;;;;;;;;;6303827;22;19937;-87
2023/09/12 05:47:15;;;;;;;;;;;;;;;;;;6301527;22;19960;-87
2023/09/12 05:49:41;;;;;;;;;;;;;;;;;;6276823;22;19914;-87
2023/09/12 05:52:07;;;;;;;;;;;;;;;;;;6274595;22;19953;-87
2023/09/12 05:54:33;;;;;;;;;;;;;;;;;;6274734;22;19926;-87
2023/09/12 05:56:59;;;;;;;;;;;;;;;;;;6299288;22;19922;-87
2023/09/12 05:59:28;;;;;;;;;;;;;;;;;;6300433;22;19925;-87
2023/09/12 06:01:55;;;;;;;;;;;;;;;;;;6275661;22;19994;-87
2023/09/12 06:04:21;;;;;;;;;;;;;;;;;;6272676;22;19954;-88
2023/09/12 06:06:47;;;;;;;;;;;;;;;;;;6273640;22;20494;-87
2023/09/12 06:09:13;;;;;;;;;;;;;;;;;;6274722;22;19915;-87
2023/09/12 06:11:39;;;;;;;;;;;;;;;;;;6296153;22;20346;-88
2023/09/12 06:14:05;;;;;;;;;;;;;;;;;;6303173;22;19918;-89
2023/09/12 06:16:33;;;;;;;;;;;;;;;;;;6297847;22;19923;-89
2023/09/12 06:18:59;;;;;;;;;;;;;;;;;;6296086;22;19923;-88
2023/09/12 06:21:25;;;;;;;;;;;;;;;;;;6272272;22;20276;-88
2023/09/12 06:23:51;;;;;;;;;;;;;;;;;;6267952;22;19919;-88
2023/09/12 06:26:17;;;;;;;;;;;;;;;;;;6296476;22;20007;-87
2023/09/12 06:28:43;;;;;;;;;;;;;;;;;;6297762;22;19954;-88
2023/09/12 06:31:12;;;;;;;;;;;;;;;;;;6295843;22;19928;-87
2023/09/12 06:33:38;;;;;;;;;;;;;;;;;;6269475;22;20329;-87
2023/09/12 06:36:04;;;;;;;;;;;;;;;;;;6269099;22;19918;-88
2023/09/12 06:38:31;;;;;;;;;;;;;;;;;;6268705;22;19919;-86
2023/09/12 06:40:57;;;;;;;;;;;;;;;;;;6296673;22;19919;-86
2023/09/12 06:43:23;;;;;;;;;;;;;;;;;;6270929;22;19926;-87
2023/09/12 06:45:50;;;;;;;;;;;;;;;;;;6297500;22;19922;-87
2023/09/12 06:48:16;;;;;;;;;;;;;;;;;;6297647;22;19919;-87
2023/09/12 06:50:42;;;;;;;;;;;;;;;;;;6296419;22;20255;-87
2023/09/12 06:53:10;;;;;;;;;;;;;;;;;;6272765;22;19915;-87
2023/09/12 06:55:36;;;;;;;;;;;;;;;;;;6273161;22;19929;-86
2023/09/12 06:58:03;;;;;;;;;;;;;;;;;;6298152;22;19993;-87
2023/09/12 07:00:29;;;;;;;;;;;;;;;;;;6299020;22;19989;-87
2023/09/12 07:02:55;;;;;;;;;;;;;;;;;;6298147;22;19961;-87
2023/09/12 07:05:21;;;;;;;;;;;;;;;;;;6273885;22;19925;-87
2023/09/12 07:07:47;;;;;;;;;;;;;;;;;;6296997;22;19967;-87
2023/09/12 07:10:13;;;;;;;;;;;;;;;;;;6273482;22;19919;-86
2023/09/12 07:12:38;;;;;;;;;;;;;;;;;;6271405;22;20345;-87
2023/09/12 07:15:04;;;;;;;;;;;;;;;;;;6279723;22;20053;-87
2023/09/12 07:17:30;;;;;;;;;;;;;;;;;;6289121;22;19984;-87
2023/09/12 07:19:57;;;;;;;;;;;;;;;;;;6305283;22;20021;-86
2023/09/12 07:22:23;;;;;;;;;;;;;;;;;;6277087;22;19919;-87
2023/09/12 07:24:49;;;;;;;;;;;;;;;;;;6279529;22;19929;-87
2023/09/12 07:27:15;;;;;;;;;;;;;;;;;;6276259;22;19942;-87
2023/09/12 07:29:40;;;;;;;;;;;;;;;;;;6304162;22;19919;-87
2023/09/12 07:32:06;;;;;;;;;;;;;;;;;;6303111;22;20349;-87
2023/09/12 07:34:33;;;;;;;;;;;;;;;;;;6276834;22;20011;-87
2023/09/12 07:36:59;;;;;;;;;;;;;;;;;;6277598;22;20341;-87
2023/09/12 07:39:24;;;;;;;;;;;;;;;;;;6277799;22;19915;-87
2023/09/12 07:41:50;;;;;;;;;;;;;;;;;;6277662;22;20343;-87
2023/09/12 07:44:16;;;;;;;;;;;;;;;;;;6300488;22;20324;-86
2023/09/12 07:46:42;;;;;;;;;;;;;;;;;;6303485;22;19937;-87
2023/09/12 07:49:09;;;;;;;;;;;;;;;;;;6278512;22;19921;-87
2023/09/12 07:51:35;;;;;;;;;;;;;;;;;;6303433;22;20399;-87
2023/09/12 07:54:01;;;;;;;;;;;;;;;;;;6303698;22;19950;-87
2023/09/12 07:56:27;;;;;;;;;;;;;;;;;;6277817;22;20469;-87
2023/09/12 07:58:53;;;;;;;;;;;;;;;;;;6302499;22;20456;-87
2023/09/12 08:01:19;;;;;;;;;;;;;;;;;;6275773;22;19946;-87
2023/09/12 08:03:45;;;;;;;;;;;;;;;;;;6276655;22;20663;-87
2023/09/12 08:06:11;;;;;;;;;;;;;;;;;;6278080;22;20335;-87
2023/09/12 08:08:36;;;;;;;;;;;;;;;;;;6277413;22;19950;-87
2023/09/12 08:11:02;;;;;;;;;;;;;;;;;;6277513;22;20494;-87
2023/09/12 08:13:28;;;;;;;;;;;;;;;;;;6276058;22;19919;-86
2023/09/12 08:15:54;;;;;;;;;;;;;;;;;;6295530;22;20340;-86
2023/09/12 08:18:23;;;;;;;;;;;;;;;;;;6298738;22;19923;-87
2023/09/12 08:20:49;;;;;;;;;;;;;;;;;;6297705;22;19923;-86
2023/09/12 08:23:15;;;;;;;;;;;;;;;;;;6297593;22;19926;-86
2023/09/12 08:25:43;;;;;;;;;;;;;;;;;;6271813;22;19918;-86
2023/09/12 08:28:09;;;;;;;;;;;;;;;;;;6300464;22;20264;-86
2023/09/12 08:30:35;;;;;;;;;;;;;;;;;;6301112;22;19923;-86
2023/09/12 08:33:03;;;;;;;;;;;;;;;;;;6298997;22;19944;-86
2023/09/12 08:35:29;;;;;;;;;;;;;;;;;;6298917;22;19957;-86
2023/09/12 08:37:55;;;;;;;;;;;;;;;;;;6273285;22;19923;-86
2023/09/12 08:40:23;;;;;;;;;;;;;;;;;;6300521;22;20410;-87
2023/09/12 08:42:50;;;;;;;;;;;;;;;;;;6273576;22;19993;-86
2023/09/12 08:45:16;;;;;;;;;;;;;;;;;;6273817;22;19925;-87
2023/09/12 08:47:42;;;;;;;;;;;;;;;;;;6299733;22;19918;-87
2023/09/12 08:50:08;;;;;;;;;;;;;;;;;;6273586;22;19993;-87
2023/09/12 08:52:34;;;;;;;;;;;;;;;;;;6273742;22;20386;-87
2023/09/12 08:55:00;;;;;;;;;;;;;;;;;;6275236;22;19957;-87
2023/09/12 08:57:26;;;;;;;;;;;;;;;;;;6274337;22;20402;-87
2023/09/12 08:59:52;;;;;;;;;;;;;;;;;;6300894;22;19923;-87
2023/09/12 09:02:18;;;;;;;;;;;;;;;;;;6273823;22;19918;-87
2023/09/12 09:04:44;;;;;;;;;;;;;;;;;;6275246;22;19950;-87
2023/09/12 09:07:10;;;;;;;;;;;;;;;;;;6274993;22;19918;-87
2023/09/12 09:09:36;;;;;;;;;;;;;;;;;;6301451;22;19941;-87
2023/09/12 09:12:02;;;;;;;;;;;;;;;;;;6273062;22;19918;-87
2023/09/12 09:14:28;;;;;;;;;;;;;;;;;;6272909;22;19925;-87
2023/09/12 09:16:54;;;;;;;;;;;;;;;;;;6273246;22;19962;-87
2023/09/12 09:19:20;;;;;;;;;;;;;;;;;;6301893;22;19918;-87
2023/09/12 09:21:46;;;;;;;;;;;;;;;;;;6273592;22;19919;-87
2023/09/12 09:24:12;;;;;;;;;;;;;;;;;;6274231;22;20036;-88
2023/09/12 09:26:38;;;;;;;;;;;;;;;;;;6274322;22;19922;-87
2023/09/12 09:29:04;;;;;;;;;;;;;;;;;;6273412;22;19919;-87
2023/09/12 09:31:31;;;;;;;;;;;;;;;;;;6299661;22;20006;-88
2023/09/12 09:33:57;;;;;;;;;;;;;;;;;;6300662;22;19919;-87
2023/09/12 09:36:23;;;;;;;;;;;;;;;;;;6273644;22;20165;-87
2023/09/12 09:38:49;;;;;;;;;;;;;;;;;;6275152;22;20327;-87
2023/09/12 09:41:15;;;;;;;;;;;;;;;;;;6273231;22;20002;-87
2023/09/12 09:43:41;;;;;;;;;;;;;;;;;;6273750;22;20286;-87
2023/09/12 09:46:07;;;;;;;;;;;;;;;;;;6273378;22;20068;-87
2023/09/12 09:48:34;;;;;;;;;;;;;;;;;;6274644;22;19919;-87
2023/09/12 09:51:03;;;;;;;;;;;;;;;;;;6300874;22;19929;-87
2023/09/12 09:53:29;;;;;;;;;;;;;;;;;;6274846;22;19921;-87
2023/09/12 09:55:55;;;;;;;;;;;;;;;;;;6299994;22;19922;-87
2023/09/12 09:58:21;;;;;;;;;;;;;;;;;;6301034;22;19922;-87
2023/09/12 10:00:48;;;;;;;;;;;;;;;;;;6274448;22;20642;-87
2023/09/12 10:03:14;;;;;;;;;;;;;;;;;;6273230;22;19961;-87
2023/09/12 10:05:40;;;;;;;;;;;;;;;;;;6274537;22;20250;-87
2023/09/12 10:08:06;;;;;;;;;;;;;;;;;;6298806;22;19994;-86
2023/09/12 10:10:32;;;;;;;;;;;;;;;;;;6276361;22;19982;-87
2023/09/12 10:12:58;;;;;;;;;;;;;;;;;;6274054;22;19915;-87
2023/09/12 10:15:24;;;;;;;;;;;;;;;;;;6275871;22;19968;-88
2023/09/12 10:17:50;;;;;;;;;;;;;;;;;;6278708;22;19930;-87
2023/09/12 10:20:16;;;;;;;;;;;;;;;;;;6306160;22;20365;-87
2023/09/12 10:22:42;;;;;;;;;;;;;;;;;;6280267;22;19914;-87
2023/09/12 10:25:08;;;;;;;;;;;;;;;;;;6279274;22;19922;-87
2023/09/12 10:27:34;;;;;;;;;;;;;;;;;;6276753;22;19919;-87
2023/09/12 10:30:00;;;;;;;;;;;;;;;;;;6334147;22;19925;-88
2023/09/12 10:32:26;;;;;;;;;;;;;;;;;;6304107;22;19942;-87
2023/09/12 10:34:52;;;;;;;;;;;;;;;;;;6278140;22;19918;-87
2023/09/12 10:37:19;;;;;;;;;;;;;;;;;;6277971;22;19925;-87
2023/09/12 10:39:45;;;;;;;;;;;;;;;;;;6303683;22;19922;-87
2023/09/12 10:42:12;;;;;;;;;;;;;;;;;;6303475;22;19965;-87
2023/09/12 10:44:38;;;;;;;;;;;;;;;;;;6278187;22;19925;-87
2023/09/12 10:47:04;;;;;;;;;;;;;;;;;;6278098;22;19919;-87
2023/09/12 10:49:30;;;;;;;;;;;;;;;;;;6304042;22;19926;-86
2023/09/12 10:51:56;;;;;;;;;;;;;;;;;;6302933;22;19998;-88
2023/09/12 10:54:22;;;;;;;;;;;;;;;;;;6305280;22;19915;-87
2023/09/12 10:56:50;;;;;;;;;;;;;;;;;;6278251;22;20309;-87
2023/09/12 10:59:16;;;;;;;;;;;;;;;;;;6279757;22;19961;-87
2023/09/12 11:01:42;;;;;;;;;;;;;;;;;;6305680;22;19985;-87
2023/09/12 11:04:08;;;;;;;;;;;;;;;;;;6304875;22;20323;-88
2023/09/12 11:06:34;;;;;;;;;;;;;;;;;;6304392;22;19918;-88
2023/09/12 11:09:00;;;;;;;;;;;;;;;;;;6304635;22;20251;-87
2023/09/12 11:11:26;;;;;;;;;;;;;;;;;;6332292;22;19929;-86
2023/09/12 11:13:52;;;;;;;;;;;;;;;;;;6305045;22;20432;-87
2023/09/12 11:16:20;;;;;;;;;;;;;;;;;;6272558;22;19923;-87
2023/09/12 11:18:46;;;;;;;;;;;;;;;;;;6298179;22;19929;-88
2023/09/12 11:21:12;;;;;;;;;;;;;;;;;;6300570;22;19990;-87
2023/09/12 11:23:39;;;;;;;;;;;;;;;;;;6274249;22;19918;-87
2023/09/12 11:26:05;;;;;;;;;;;;;;;;;;6299296;22;19918;-87
2023/09/12 11:28:32;;;;;;;;;;;;;;;;;;6297235;22;19919;-88
2023/09/12 11:30:58;;;;;;;;;;;;;;;;;;6297801;22;19989;-87
2023/09/12 11:33:24;;;;;;;;;;;;;;;;;;6297329;22;19918;-88
2023/09/12 11:35:50;;;;;;;;;;;;;;;;;;6298511;22;19915;-88
2023/09/12 11:38:15;;;;;;;;;;;;;;;;;;6298623;22;19969;-88
2023/09/12 11:40:41;;;;;;;;;;;;;;;;;;6298000;22;19919;-87
2023/09/12 11:43:07;;;;;;;;;;;;;;;;;;6271428;22;19919;-87
2023/09/12 11:45:33;;;;;;;;;;;;;;;;;;6297979;22;19919;-87
2023/09/12 11:47:59;;;;;;;;;;;;;;;;;;6276953;22;19906;-87
2023/09/12 11:50:25;;;;;;;;;;;;;;;;;;6274821;22;19927;-87
2023/09/12 11:52:51;;;;;;;;;;;;;;;;;;6297247;22;19918;-87
2023/09/12 11:55:17;;;;;;;;;;;;;;;;;;6274354;22;20382;-87
2023/09/12 11:57:43;;;;;;;;;;;;;;;;;;6272446;22;20343;-87
2023/09/12 12:00:09;;;;;;;;;;;;;;;;;;6296018;22;19968;-87
2023/09/12 12:02:35;;;;;;;;;;;;;;;;;;6297991;22;19934;-87
2023/09/12 12:05:01;;;;;;;;;;;;;;;;;;6272791;22;19919;-87
2023/09/12 12:07:27;;;;;;;;;;;;;;;;;;6272870;22;19919;-88
2023/09/12 12:09:53;;;;;;;;;;;;;;;;;;6273015;22;19924;-87
2023/09/12 12:12:19;;;;;;;;;;;;;;;;;;6297595;22;20363;-87
2023/09/12 12:14:45;;;;;;;;;;;;;;;;;;6299307;22;19922;-88
2023/09/12 12:17:11;;;;;;;;;;;;;;;;;;6299349;22;19923;-87
2023/09/12 12:19:37;;;;;;;;;;;;;;;;;;6274250;22;19968;-88
2023/09/12 12:22:05;;;;;;;;;;;;;;;;;;6273576;22;20257;-88
2023/09/12 12:24:31;;;;;;;;;;;;;;;;;;6299316;22;19915;-87
2023/09/12 12:26:57;;;;;;;;;;;;;;;;;;6274713;22;19965;-88
2023/09/12 12:29:23;;;;;;;;;;;;;;;;;;6275358;22;19950;-88
2023/09/12 12:31:49;;;;;;;;;;;;;;;;;;6273764;22;19919;-87
2023/09/12 12:34:15;;;;;;;;;;;;;;;;;;6273060;22;19922;-87
2023/09/12 12:36:41;;;;;;;;;;;;;;;;;;6272964;22;19923;-86
2023/09/12 12:39:07;;;;;;;;;;;;;;;;;;6274084;22;19919;-87
2023/09/12 12:41:33;;;;;;;;;;;;;;;;;;6273228;22;19925;-87
2023/09/12 12:44:00;;;;;;;;;;;;;;;;;;6299759;22;19998;-87
2023/09/12 12:46:26;;;;;;;;;;;;;;;;;;6274107;22;19923;-87
2023/09/12 12:48:52;;;;;;;;;;;;;;;;;;6273744;22;19946;-87
2023/09/12 12:51:18;;;;;;;;;;;;;;;;;;6273344;22;19926;-87
2023/09/12 12:53:44;;;;;;;;;;;;;;;;;;6274326;22;19926;-87
2023/09/12 12:56:10;;;;;;;;;;;;;;;;;;6272347;22;19918;-87
2023/09/12 12:58:36;;;;;;;;;;;;;;;;;;6275238;22;20047;-87
2023/09/12 13:01:02;;;;;;;;;;;;;;;;;;6273980;22;20351;-87
2023/09/12 13:03:28;;;;;;;;;;;;;;;;;;6273145;22;19925;-86
2023/09/12 13:05:54;;;;;;;;;;;;;;;;;;6298784;22;19919;-87
2023/09/12 13:08:19;;;;;;;;;;;;;;;;;;6271770;22;20103;-87
2023/09/12 13:10:45;;;;;;;;;;;;;;;;;;6275002;22;19954;-88
2023/09/12 13:13:11;;;;;;;;;;;;;;;;;;6272867;22;20002;-87
2023/09/12 13:15:37;;;;;;;;;;;;;;;;;;6275876;22;19933;-87
2023/09/12 13:18:04;;;;;;;;;;;;;;;;;;6278127;22;20027;-87
2023/09/12 13:20:30;;;;;;;;;;;;;;;;;;6275231;22;20345;-87
2023/09/12 13:22:56;;;;;;;;;;;;;;;;;;6300983;22;19954;-87
2023/09/12 13:25:25;;;;;;;;;;;;;;;;;;6269832;22;19918;-87
2023/09/12 13:27:54;;;;;;;;;;;;;;;;;;6294045;22;19922;-87
2023/09/12 13:30:20;;;;;;;;;;;;;;;;;;6322704;22;19967;-87
2023/09/12 13:32:46;;;;;;;;;;;;;;;;;;6271594;22;19929;-88
2023/09/12 13:35:14;;;;;;;;;;;;;;;;;;6296167;22;19926;-88
2023/09/12 13:37:40;;;;;;;;;;;;;;;;;;6271310;22;19922;-88
2023/09/12 13:40:09;;;;;;;;;;;;;;;;;;6297341;22;19941;-87
2023/09/12 13:42:38;;;;;;;;;;;;;;;;;;6296723;22;19919;-87
2023/09/12 13:45:04;;;;;;;;;;;;;;;;;;6272632;22;20417;-87
2023/09/12 13:47:30;;;;;;;;;;;;;;;;;;6296044;22;19964;-87
2023/09/12 13:49:56;;;;;;;;;;;;;;;;;;6327625;22;19947;-87
2023/09/12 13:52:25;;;;;;;;;;;;;;;;;;6273092;22;19918;-86
2023/09/12 13:54:51;;;;;;;;;;;;;;;;;;6273623;22;20374;-87
2023/09/12 13:57:17;;;;;;;;;;;;;;;;;;6298723;22;19923;-87
2023/09/12 13:59:45;;;;;;;;;;;;;;;;;;6269672;22;19919;-87
2023/09/12 14:02:12;;;;;;;;;;;;;;;;;;6270131;22;19918;-87
2023/09/12 14:04:38;;;;;;;;;;;;;;;;;;6268804;22;20001;-87
2023/09/12 14:07:04;;;;;;;;;;;;;;;;;;6297309;22;19919;-87
2023/09/12 14:09:32;;;;;;;;;;;;;;;;;;6273547;22;19918;-87
2023/09/12 14:11:58;;;;;;;;;;;;;;;;;;6273290;22;19918;-87
2023/09/12 14:14:24;;;;;;;;;;;;;;;;;;6271314;22;19925;-87
2023/09/12 14:16:50;;;;;;;;;;;;;;;;;;6288746;22;19923;-87
2023/09/12 14:19:16;;;;;;;;;;;;;;;;;;6268907;22;20444;-87
2023/09/12 14:21:44;;;;;;;;;;;;;;;;;;6269054;22;20251;-87
2023/09/12 14:24:10;;;;;;;;;;;;;;;;;;6267704;22;19919;-87
2023/09/12 14:26:36;;;;;;;;;;;;;;;;;;6267759;22;19930;-87
2023/09/12 14:29:04;;;;;;;;;;;;;;;;;;6269029;22;19922;-87
2023/09/12 14:31:32;;;;;;;;;;;;;;;;;;6267531;22;20098;-87
2023/09/12 14:34:00;;;;;;;;;;;;;;;;;;6290770;22;19922;-87
2023/09/12 14:36:26;;;;;;;;;;;;;;;;;;6267019;22;19923;-87
2023/09/12 14:38:52;;;;;;;;;;;;;;;;;;6269129;22;19969;-87
2023/09/12 14:41:18;;;;;;;;;;;;;;;;;;6268062;22;19918;-87
2023/09/12 14:43:44;;;;;;;;;;;;;;;;;;6269180;22;19949;-88
2023/09/12 14:46:10;;;;;;;;;;;;;;;;;;6269818;22;19937;-87
2023/09/12 14:48:36;;;;;;;;;;;;;;;;;;6295773;22;19966;-87
2023/09/12 14:51:04;;;;;;;;;;;;;;;;;;6268985;22;20288;-88
2023/09/12 14:53:32;;;;;;;;;;;;;;;;;;6268879;22;19919;-87
2023/09/12 14:55:57;;;;;;;;;;;;;;;;;;6269611;22;19919;-87
2023/09/12 14:58:23;;;;;;;;;;;;;;;;;;6294972;22;20002;-87
2023/09/12 15:00:49;;;;;;;;;;;;;;;;;;6269824;22;19925;-88
2023/09/12 15:03:18;;;;;;;;;;;;;;;;;;6269682;22;19926;-87
2023/09/12 15:05:44;;;;;;;;;;;;;;;;;;6269607;22;20255;-87
2023/09/12 15:08:10;;;;;;;;;;;;;;;;;;6270455;22;19968;-86
2023/09/12 15:10:36;;;;;;;;;;;;;;;;;;6293351;22;19944;-87
2023/09/12 15:13:02;;;;;;;;;;;;;;;;;;6272468;22;19965;-87
2023/09/12 15:15:31;;;;;;;;;;;;;;;;;;6274323;22;19919;-86
2023/09/12 15:18:07;;;;;;;;;;;;;;;;;;;;;
2023/09/12 15:20:36;;;;;;;;;;;;;;;;;;6270799;22;20350;-87
2023/09/12 15:23:02;;;;;;;;;;;;;;;;;;6266429;22;19922;-87
2023/09/12 15:25:28;;;;;;;;;;;;;;;;;;6241971;22;19919;-86
2023/09/12 15:27:54;;;;;;;;;;;;;;;;;;6240785;22;19962;-86
2023/09/12 15:30:25;;;;;;;;;;;;;;;;;;6241859;22;19923;-87
2023/09/12 15:32:51;;;;;;;;;;;;;;;;;;6268874;22;20358;-87
2023/09/12 15:35:20;;;;;;;;;;;;;;;;;;6265702;22;19941;-85
2023/09/12 15:37:52;;;;;;;;;;;;;;;;;;6267080;22;19926;-85
2023/09/12 15:40:21;;;;;;;;;;;;;;;;;;6265982;22;20376;-86
2023/09/12 15:42:47;;;;;;;;;;;;;;;;;;6264614;22;19919;-83
2023/09/12 15:45:13;;;;;;;;;;;;;;;;;;6241767;22;20437;-84
2023/09/12 15:47:41;;;;;;;;;;;;;;;;;;6239826;22;20413;-84
2023/09/12 15:50:07;;;;;;;;;;;;;;;;;;6238481;22;19919;-85
2023/09/12 15:52:40;;;;;;;;;;;;;;;;;;6240316;22;20005;-85
2023/09/12 15:55:06;;;;;;;;;;;;;;;;;;6238630;22;19929;-85
2023/09/12 15:57:35;;;;;;;;;;;;;;;;;;6242294;22;19923;-85
2023/09/12 16:00:06;;;;;;;;;;;;;;;;;;6238373;22;19946;-85
2023/09/12 16:02:32;;;;;;;;;;;;;;;;;;6239446;22;19919;-85
2023/09/12 19:51:13;;;;;;;;;;;;;;;;;;6348610;22;19980;-82
2023/09/12 19:53:49;;;;;;;;;;;;;;;;;;6342690;22;19967;-82
2023/09/12 19:56:26;;;;;;;;;;;;;;;;;;6295654;22;19918;-82
2023/09/12 19:58:54;;;;;;;;;;;;;;;;;;6352153;22;19924;-82
2023/09/12 20:01:21;;;;;;;;;;;;;;;;;;6295578;22;19918;-82
2023/09/12 20:04:02;;;;;;;;;;;;;;;;;;6326701;22;20010;-82
2023/09/12 20:21:32;;;;;;;;;;;;;;;;;;6180949;23;20368;-82
2023/09/12 20:24:13;;;;;;;;;;;;;;;;;;6168435;23;20018;-82
2023/09/12 20:27:13;;;;;;;;;;;;;;;;;;;;;
2023/09/12 20:32:32;;;;;;;;;;;;;;;;;;6133000;23;19920;-82
2023/09/12 20:35:25;;;;;;;;;;;;;;;;;;6138944;23;20068;-82
2023/09/12 20:37:52;;;;;;;;;;;;;;;;;;6118524;23;20004;-82
2023/09/12 20:40:30;;;;;;;;;;;;;;;;;;6249208;22;19919;-82
2023/09/12 20:46:00;;;;;;;;;;;;;;;;;;6270312;22;19965;-82
2023/09/12 20:48:35;;;;;;;;;;;;;;;;;;6231108;22;19924;-82
2023/09/12 20:51:20;;;;;;;;;;;;;;;;;;6256421;22;19919;-82
2023/09/12 20:54:08;;;;;;;;;;;;;;;;;;6299370;22;19926;-81
2023/09/12 20:56:43;;;;;;;;;;;;;;;;;;6300005;22;19922;-82
2023/09/12 20:59:11;;;;;;;;;;;;;;;;;;6320336;22;19914;-82
2023/09/12 21:01:41;;;;;;;;;;;;;;;;;;6293392;22;19925;-82
2023/09/12 21:07:48;;;;;;;;;;;;;;;;;;6208842;23;19919;-82
2023/09/12 21:10:29;;;;;;;;;;;;;;;;;;6200209;23;19959;-82
2023/09/12 21:12:59;;;;;;;;;;;;;;;;;;6197223;23;19983;-82
2023/09/12 21:15:27;;;;;;;;;;;;;;;;;;6171822;23;20226;-82
2023/09/12 21:18:03;;;;;;;;;;;;;;;;;;6223894;22;19922;-82
2023/09/12 21:20:30;;;;;;;;;;;;;;;;;;6295207;22;19919;-82
2023/09/12 21:22:59;;;;;;;;;;;;;;;;;;6295192;22;19987;-82
2023/09/12 21:25:28;;;;;;;;;;;;;;;;;;6271592;22;19925;-81
2023/09/12 21:27:56;;;;;;;;;;;;;;;;;;6323851;22;19993;-82
2023/09/12 21:30:30;;;;;;;;;;;;;;;;;;6268102;22;19989;-82
2023/09/12 21:32:58;;;;;;;;;;;;;;;;;;6266035;22;19918;-82
2023/09/12 21:35:35;;;;;;;;;;;;;;;;;;6267356;22;20452;-82
2023/09/12 21:38:05;;;;;;;;;;;;;;;;;;6294630;22;19922;-82
2023/09/12 21:40:31;;;;;;;;;;;;;;;;;;6297163;22;19997;-82
2023/09/12 21:43:12;;;;;;;;;;;;;;;;;;6295717;22;19926;-82
2023/09/12 21:45:47;;;;;;;;;;;;;;;;;;6294281;22;20258;-82